createdAt,value
2023-05-24T00:00:33.048Z,96.00
2023-05-24T00:03:00.819Z,96.40
2023-05-24T00:05:31.294Z,96.30
2023-05-24T00:07:59.872Z,96.40
2023-05-24T00:10:27.504Z,96.50
2023-05-24T00:12:55.137Z,96.80
2023-05-24T00:15:22.678Z,98.40
2023-05-24T00:17:50.232Z,99.10
2023-05-24T00:20:20.909Z,99.90
2023-05-24T00:22:48.661Z,99.90
2023-05-24T00:25:16.349Z,99.90
2023-05-24T00:27:43.838Z,99.90
2023-05-24T00:30:11.702Z,99.90
2023-05-24T00:32:39.335Z,99.90
2023-05-24T00:35:07.239Z,99.90
2023-05-24T00:37:34.812Z,99.90
2023-05-24T00:40:02.350Z,99.90
2023-05-24T00:42:29.809Z,99.90
2023-05-24T00:44:57.313Z,99.90
2023-05-24T00:47:24.952Z,99.90
2023-05-24T00:49:52.576Z,99.90
2023-05-24T00:52:20.252Z,99.90
2023-05-24T00:54:54.075Z,99.90
2023-05-24T00:57:21.687Z,99.90
2023-05-24T00:59:49.510Z,99.90
2023-05-24T01:02:18.605Z,99.90
2023-05-24T01:04:49.122Z,99.90
2023-05-24T01:07:28.114Z,99.90
2023-05-24T01:10:04.331Z,99.90
2023-05-24T01:12:50.186Z,99.90
2023-05-24T01:15:51.395Z,99.90
2023-05-24T01:18:47.045Z,99.90
2023-05-24T01:21:38.737Z,99.90
2023-05-24T01:24:53.964Z,99.90
2023-05-24T01:27:23.075Z,99.90
2023-05-24T01:29:53.652Z,99.90
2023-05-24T01:32:21.608Z,99.90
2023-05-24T01:34:49.234Z,99.90
2023-05-24T01:37:17.193Z,99.90
2023-05-24T01:39:44.922Z,99.90
2023-05-24T01:42:26.485Z,99.90
2023-05-24T01:45:12.777Z,99.90
2023-05-24T01:48:07.272Z,99.90
2023-05-24T01:50:46.587Z,99.90
2023-05-24T01:53:19.552Z,99.90
2023-05-24T01:55:49.904Z,99.90
2023-05-24T01:58:21.125Z,99.90
2023-05-24T02:00:49.726Z,99.90
2023-05-24T02:03:17.399Z,99.90
2023-05-24T02:05:46.273Z,99.90
2023-05-24T02:08:13.996Z,99.90
2023-05-24T02:10:41.689Z,99.90
2023-05-24T02:13:09.492Z,99.90
2023-05-24T02:15:37.254Z,99.90
2023-05-24T02:18:08.255Z,99.90
2023-05-24T02:20:38.750Z,99.90
2023-05-24T02:23:06.894Z,99.90
2023-05-24T02:25:34.484Z,99.90
2023-05-24T02:28:02.109Z,99.90
2023-05-24T02:30:29.641Z,99.90
2023-05-24T02:32:57.518Z,99.90
2023-05-24T02:35:25.141Z,99.90
2023-05-24T02:37:52.640Z,99.90
2023-05-24T02:40:20.230Z,99.90
2023-05-24T02:42:48.486Z,99.90
2023-05-24T02:45:16.012Z,99.90
2023-05-24T02:47:43.564Z,99.90
2023-05-24T02:50:11.147Z,99.90
2023-05-24T02:52:38.618Z,99.90
2023-05-24T02:55:06.805Z,99.90
2023-05-24T02:57:35.254Z,99.90
2023-05-24T03:00:02.901Z,99.90
2023-05-24T03:02:34.131Z,99.90
2023-05-24T03:05:01.913Z,99.90
2023-05-24T03:07:30.516Z,99.90
2023-05-24T03:09:58.036Z,99.90
2023-05-24T03:12:25.497Z,99.90
2023-05-24T03:14:52.933Z,99.90
2023-05-24T03:17:20.572Z,99.90
2023-05-24T03:19:48.115Z,99.90
2023-05-24T03:22:15.656Z,99.90
2023-05-24T03:24:43.171Z,99.90
2023-05-24T03:27:12.720Z,99.90
2023-05-24T03:29:40.212Z,99.90
2023-05-24T03:32:08.109Z,99.90
2023-05-24T03:34:35.869Z,99.90
2023-05-24T03:37:03.652Z,99.90
2023-05-24T03:39:31.413Z,99.90
2023-05-24T03:42:12.067Z,99.90
2023-05-24T03:44:40.253Z,99.90
2023-05-24T03:47:07.795Z,99.90
2023-05-24T03:49:35.412Z,99.90
2023-05-24T03:52:03.450Z,99.90
2023-05-24T03:54:31.278Z,99.90
2023-05-24T03:56:58.989Z,99.90
2023-05-24T03:59:27.124Z,99.90
2023-05-24T04:01:55.452Z,99.90
2023-05-24T04:04:23.163Z,99.90
2023-05-24T04:06:53.978Z,99.90
2023-05-24T04:09:23.882Z,99.90
2023-05-24T04:11:51.813Z,99.90
2023-05-24T04:14:19.339Z,99.90
2023-05-24T04:16:46.929Z,99.90
2023-05-24T04:19:14.451Z,99.90
2023-05-24T04:21:42.041Z,99.90
2023-05-24T04:24:09.569Z,99.90
2023-05-24T04:26:37.879Z,99.90
2023-05-24T04:29:05.504Z,99.90
2023-05-24T04:31:34.444Z,99.90
2023-05-24T04:34:02.923Z,99.90
2023-05-24T04:36:34.083Z,99.90
2023-05-24T04:39:04.965Z,99.90
2023-05-24T04:41:32.535Z,99.90
2023-05-24T04:44:00.157Z,99.90
2023-05-24T04:46:28.439Z,99.90
2023-05-24T04:48:55.989Z,99.90
2023-05-24T04:51:24.477Z,99.90
2023-05-24T04:53:51.966Z,99.90
2023-05-24T04:56:19.659Z,99.90
2023-05-24T04:58:48.032Z,99.90
2023-05-24T05:01:15.901Z,99.90
2023-05-24T05:03:46.011Z,99.90
2023-05-24T05:06:13.807Z,99.90
2023-05-24T05:08:41.324Z,99.90
2023-05-24T05:11:08.824Z,99.90
2023-05-24T05:13:36.313Z,99.90
2023-05-24T05:16:03.854Z,99.90
2023-05-24T05:18:31.445Z,99.70
2023-05-24T05:20:58.868Z,97.50
2023-05-24T05:23:26.294Z,98.30
2023-05-24T05:25:53.820Z,97.50
2023-05-24T05:30:49.096Z,94.90
2023-05-24T05:33:16.691Z,94.40
2023-05-24T05:35:44.204Z,93.80
2023-05-24T05:38:11.718Z,92.40
2023-05-24T05:40:39.230Z,92.10
2023-05-24T05:43:08.539Z,90.80
2023-05-24T05:45:36.025Z,90.30
2023-05-24T05:48:03.699Z,90.60
2023-05-24T05:50:31.275Z,88.00
2023-05-24T05:52:58.800Z,86.40
2023-05-24T05:55:26.423Z,84.90
2023-05-24T06:00:23.462Z,87.60
2023-05-24T06:02:51.118Z,87.60
2023-05-24T06:05:19.465Z,85.50
2023-05-24T06:07:47.599Z,86.70
2023-05-24T06:10:15.136Z,86.60
2023-05-24T06:12:42.803Z,84.40
2023-05-24T06:15:10.492Z,83.60
2023-05-24T06:17:38.189Z,83.40
2023-05-24T06:20:15.593Z,82.80
2023-05-24T06:22:43.823Z,83.30
2023-05-24T06:25:14.862Z,81.50
2023-05-24T06:27:42.434Z,81.20
2023-05-24T06:30:10.403Z,82.00
2023-05-24T06:32:38.070Z,80.30
2023-05-24T06:35:06.090Z,83.00
2023-05-24T06:37:33.643Z,82.60
2023-05-24T06:40:01.335Z,82.90
2023-05-24T06:42:28.960Z,80.90
2023-05-24T06:44:56.591Z,81.60
2023-05-24T06:47:24.349Z,77.80
2023-05-24T06:49:51.997Z,77.60
2023-05-24T06:52:19.668Z,75.70
2023-05-24T06:54:47.213Z,78.30
2023-05-24T06:57:14.633Z,80.20
2023-05-24T06:59:42.235Z,80.10
2023-05-24T07:02:09.817Z,78.10
2023-05-24T07:04:37.376Z,76.20
2023-05-24T07:07:04.885Z,76.00
2023-05-24T07:09:32.563Z,78.60
2023-05-24T07:12:00.485Z,76.30
2023-05-24T07:14:28.241Z,76.50
2023-05-24T07:16:57.608Z,74.30
2023-05-24T07:19:29.279Z,77.40
2023-05-24T07:21:57.186Z,74.20
2023-05-24T07:24:24.909Z,75.30
2023-05-24T07:26:53.789Z,74.10
2023-05-24T07:29:21.923Z,75.70
2023-05-24T07:31:49.577Z,78.70
2023-05-24T07:34:17.124Z,76.60
2023-05-24T07:36:45.647Z,80.10
2023-05-24T07:39:15.891Z,82.80
2023-05-24T07:41:43.441Z,80.80
2023-05-24T07:44:12.221Z,82.10
2023-05-24T07:46:39.812Z,84.20
2023-05-24T07:49:07.312Z,77.50
2023-05-24T07:51:34.790Z,76.10
2023-05-24T07:54:02.284Z,73.90
2023-05-24T07:56:30.262Z,74.70
2023-05-24T07:59:03.716Z,73.80
2023-05-24T08:01:32.357Z,78.20
2023-05-24T08:04:00.231Z,77.60
2023-05-24T08:06:27.903Z,81.40
2023-05-24T08:08:55.375Z,75.20
2023-05-24T08:11:23.156Z,74.40
2023-05-24T08:13:50.665Z,77.00
2023-05-24T08:16:18.920Z,80.80
2023-05-24T08:18:46.599Z,82.40
2023-05-24T08:21:14.134Z,81.00
2023-05-24T08:23:41.670Z,83.20
2023-05-24T08:26:09.322Z,83.90
2023-05-24T08:28:36.775Z,83.50
2023-05-24T08:31:04.544Z,84.90
2023-05-24T08:33:32.796Z,86.60
2023-05-24T08:36:00.311Z,85.60
2023-05-24T08:38:28.894Z,84.90
2023-05-24T08:40:56.886Z,84.50
2023-05-24T08:43:26.812Z,84.90
2023-05-24T08:45:58.046Z,85.20
2023-05-24T08:48:27.065Z,86.10
2023-05-24T08:50:55.589Z,86.70
2023-05-24T08:53:23.848Z,85.70
2023-05-24T08:55:55.924Z,86.30
2023-05-24T08:58:23.630Z,86.90
2023-05-24T09:00:51.081Z,87.10
2023-05-24T09:03:19.449Z,86.00
2023-05-24T09:05:47.375Z,86.60
2023-05-24T09:08:18.197Z,86.30
2023-05-24T09:10:54.972Z,86.10
2023-05-24T09:13:25.177Z,85.60
2023-05-24T09:15:53.697Z,85.20
2023-05-24T09:18:21.456Z,86.80
2023-05-24T09:20:49.113Z,86.00
2023-05-24T09:23:17.735Z,87.40
2023-05-24T09:25:46.694Z,86.10
2023-05-24T09:28:18.739Z,85.60
2023-05-24T09:30:57.714Z,86.60
2023-05-24T09:33:35.247Z,85.80
2023-05-24T09:36:05.054Z,84.70
2023-05-24T09:38:33.173Z,85.40
2023-05-24T09:41:06.830Z,86.20
2023-05-24T09:43:36.467Z,84.10
2023-05-24T09:46:04.881Z,84.90
2023-05-24T09:48:32.504Z,84.50
2023-05-24T09:51:05.977Z,86.00
2023-05-24T09:53:35.187Z,86.00
2023-05-24T09:56:10.242Z,85.70
2023-05-24T09:58:37.797Z,85.50
2023-05-24T10:01:12.389Z,86.00
2023-05-24T10:03:52.405Z,87.30
2023-05-24T10:06:21.032Z,85.10
2023-05-24T10:08:49.401Z,84.70
2023-05-24T10:11:17.091Z,87.10
2023-05-24T10:13:44.995Z,86.60
2023-05-24T10:16:12.979Z,85.90
2023-05-24T10:18:41.227Z,86.80
2023-05-24T10:21:10.763Z,87.50
2023-05-24T10:23:39.422Z,86.60
2023-05-24T10:26:08.424Z,85.50
2023-05-24T10:28:43.219Z,86.40
2023-05-24T10:31:13.057Z,83.90
2023-05-24T10:33:44.445Z,86.10
2023-05-24T10:36:14.262Z,82.70
2023-05-24T10:38:42.575Z,86.30
2023-05-24T10:41:13.049Z,84.60
2023-05-24T10:43:53.406Z,82.30
2023-05-24T10:46:29.156Z,83.60
2023-05-24T10:49:01.216Z,83.00
2023-05-24T10:51:35.529Z,84.70
2023-05-24T10:54:13.185Z,83.20
2023-05-24T10:56:43.320Z,83.20
2023-05-24T10:59:45.407Z,85.00
2023-05-24T11:02:14.833Z,81.20
2023-05-24T11:04:46.364Z,80.10
2023-05-24T11:07:15.683Z,79.70
2023-05-24T11:09:46.808Z,81.10
2023-05-24T11:12:17.873Z,81.00
2023-05-24T11:14:52.782Z,81.00
2023-05-24T11:17:24.147Z,80.10
2023-05-24T11:19:55.767Z,80.80
2023-05-24T11:22:26.748Z,80.40
2023-05-24T11:24:54.465Z,80.60
2023-05-24T11:27:22.234Z,81.90
2023-05-24T11:29:49.988Z,81.20
2023-05-24T11:32:19.932Z,83.40
2023-05-24T11:34:48.577Z,82.70
2023-05-24T11:37:17.975Z,81.70
2023-05-24T11:39:52.335Z,81.40
2023-05-24T11:42:22.719Z,80.20
2023-05-24T11:44:50.574Z,82.10
2023-05-24T11:47:20.974Z,83.70
2023-05-24T11:49:54.398Z,82.20
2023-05-24T11:52:22.246Z,82.60
2023-05-24T11:54:50.583Z,80.70
2023-05-24T11:57:22.160Z,83.10
2023-05-24T11:59:49.906Z,83.90
2023-05-24T12:02:18.099Z,83.20
2023-05-24T12:04:46.893Z,84.90
2023-05-24T12:07:16.557Z,84.70
2023-05-24T12:09:44.076Z,85.70
2023-05-24T12:12:11.647Z,85.80
2023-05-24T12:14:39.746Z,84.10
2023-05-24T12:17:17.167Z,84.90
2023-05-24T12:19:44.988Z,84.00
2023-05-24T12:22:12.492Z,83.50
2023-05-24T12:24:40.058Z,82.70
2023-05-24T12:27:08.398Z,83.20
2023-05-24T12:29:38.879Z,83.30
2023-05-24T12:32:12.345Z,83.00
2023-05-24T12:34:44.697Z,82.60
2023-05-24T12:37:13.358Z,82.20
2023-05-24T12:39:43.633Z,82.20
2023-05-24T12:42:15.208Z,83.60
2023-05-24T12:44:43.049Z,83.00
2023-05-24T12:47:10.929Z,83.10
2023-05-24T12:49:38.703Z,82.50
2023-05-24T12:52:06.759Z,82.70
2023-05-24T12:54:34.601Z,83.10
2023-05-24T12:57:05.225Z,83.40
2023-05-24T12:59:33.728Z,83.60
2023-05-24T13:02:01.901Z,83.40
2023-05-24T13:04:31.836Z,81.50
2023-05-24T13:07:00.422Z,81.30
2023-05-24T13:09:28.036Z,82.80
2023-05-24T13:11:55.738Z,82.00
2023-05-24T13:14:23.501Z,82.30
2023-05-24T13:16:51.202Z,81.30
2023-05-24T13:19:19.117Z,81.70
2023-05-24T13:21:46.687Z,83.00
2023-05-24T13:24:16.584Z,82.30
2023-05-24T13:26:45.096Z,81.70
2023-05-24T13:31:43.730Z,82.80
2023-05-24T13:34:11.586Z,81.50
2023-05-24T13:36:39.553Z,80.60
2023-05-24T13:41:41.414Z,82.00
2023-05-24T13:44:10.191Z,80.10
2023-05-24T13:46:38.556Z,81.00
2023-05-24T13:49:07.221Z,80.50
2023-05-24T13:51:35.110Z,81.30
2023-05-24T13:54:03.313Z,81.30
2023-05-24T13:56:34.348Z,81.10
2023-05-24T13:59:03.739Z,81.00
2023-05-24T14:01:32.011Z,79.30
2023-05-24T14:04:02.555Z,80.50
2023-05-24T14:06:30.514Z,79.40
2023-05-24T14:08:58.413Z,79.20
2023-05-24T14:11:26.781Z,77.60
2023-05-24T14:16:25.350Z,80.20
2023-05-24T14:18:52.954Z,79.40
2023-05-24T14:21:25.860Z,80.90
2023-05-24T14:23:53.421Z,80.90
2023-05-24T14:26:23.823Z,80.30
2023-05-24T14:28:54.362Z,80.50
2023-05-24T14:31:24.177Z,80.70
2023-05-24T14:33:51.692Z,80.10
2023-05-24T14:36:19.549Z,80.20
2023-05-24T14:38:47.111Z,80.40
2023-05-24T14:41:15.577Z,81.70
2023-05-24T14:43:43.041Z,79.10
2023-05-24T14:46:10.706Z,79.70
2023-05-24T14:48:41.453Z,80.70
2023-05-24T14:51:09.289Z,80.60
2023-05-24T14:53:36.909Z,81.70
2023-05-24T14:56:06.360Z,78.70
2023-05-24T14:58:34.015Z,79.20
2023-05-24T15:01:02.034Z,78.50
2023-05-24T15:03:29.692Z,77.10
2023-05-24T15:05:57.599Z,78.50
2023-05-24T15:08:25.298Z,79.60
2023-05-24T15:10:52.862Z,78.90
2023-05-24T15:13:20.458Z,76.90
2023-05-24T15:15:48.523Z,78.30
2023-05-24T15:18:16.260Z,78.00
2023-05-24T15:20:44.090Z,78.20
2023-05-24T15:23:12.017Z,79.00
2023-05-24T15:25:39.539Z,80.30
2023-05-24T15:28:07.334Z,78.60
2023-05-24T15:30:35.172Z,78.50
2023-05-24T15:33:02.925Z,79.80
2023-05-24T15:35:30.753Z,79.50
2023-05-24T15:37:58.340Z,79.80
2023-05-24T15:40:26.224Z,79.80
2023-05-24T15:42:53.804Z,79.20
2023-05-24T15:45:21.458Z,79.50
2023-05-24T15:47:49.272Z,80.00
2023-05-24T15:50:16.918Z,78.30
2023-05-24T15:52:44.433Z,79.00
2023-05-24T15:55:11.997Z,80.30
2023-05-24T15:57:39.468Z,80.30
2023-05-24T16:00:07.565Z,81.50
2023-05-24T16:02:39.558Z,82.30
2023-05-24T16:05:07.895Z,82.10
2023-05-24T16:07:35.637Z,83.10
2023-05-24T16:10:03.420Z,81.80
2023-05-24T16:12:31.080Z,82.30
2023-05-24T16:15:00.303Z,83.20
2023-05-24T16:17:27.981Z,83.00
2023-05-24T16:19:55.717Z,82.00
2023-05-24T16:22:24.091Z,83.50
2023-05-24T16:24:51.690Z,84.10
2023-05-24T16:27:19.326Z,84.60
2023-05-24T16:29:47.089Z,84.00
2023-05-24T16:32:14.691Z,84.10
2023-05-24T16:34:56.080Z,85.30
2023-05-24T16:37:24.431Z,83.60
2023-05-24T16:39:51.964Z,84.10
2023-05-24T16:42:19.482Z,85.60
2023-05-24T16:44:47.142Z,85.50
2023-05-24T16:47:14.791Z,84.50
2023-05-24T16:49:42.367Z,87.40
2023-05-24T16:52:09.897Z,87.00
2023-05-24T16:54:37.379Z,87.60
2023-05-24T16:57:04.952Z,88.90
2023-05-24T16:59:33.239Z,89.80
2023-05-24T17:02:00.888Z,90.10
2023-05-24T17:04:28.493Z,90.60
2023-05-24T17:06:56.061Z,90.80
2023-05-24T17:09:23.627Z,91.30
2023-05-24T17:11:51.370Z,92.00
2023-05-24T17:14:18.960Z,91.90
2023-05-24T17:16:46.630Z,92.10
2023-05-24T17:19:14.320Z,92.30
2023-05-24T17:21:42.089Z,92.70
2023-05-24T17:24:09.699Z,93.00
2023-05-24T17:26:39.133Z,92.70
2023-05-24T17:29:06.608Z,93.40
2023-05-24T17:31:34.338Z,93.50
2023-05-24T17:34:02.118Z,94.00
2023-05-24T17:36:33.453Z,94.90
2023-05-24T17:39:00.933Z,95.00
2023-05-24T17:41:28.353Z,95.70
2023-05-24T17:43:56.003Z,96.00
2023-05-24T17:46:23.515Z,96.40
2023-05-24T17:48:52.008Z,97.10
2023-05-24T17:51:19.776Z,96.80
2023-05-24T17:53:47.985Z,97.20
2023-05-24T17:56:15.674Z,96.60
2023-05-24T17:58:43.644Z,97.10
2023-05-24T18:01:12.754Z,97.40
2023-05-24T18:03:41.105Z,96.80
2023-05-24T18:06:09.804Z,96.20
2023-05-24T18:08:40.955Z,95.40
2023-05-24T18:11:09.658Z,95.10
2023-05-24T18:13:37.874Z,96.10
2023-05-24T18:16:06.692Z,95.30
2023-05-24T18:18:34.618Z,95.20
2023-05-24T18:21:02.092Z,95.10
2023-05-24T18:23:30.302Z,95.50
2023-05-24T18:26:01.224Z,96.10
2023-05-24T18:28:30.800Z,96.20
2023-05-24T18:30:58.249Z,96.50
2023-05-24T18:33:25.968Z,96.80
2023-05-24T18:35:53.567Z,96.70
2023-05-24T18:38:21.502Z,96.50
2023-05-24T18:40:49.010Z,96.30
2023-05-24T18:43:16.542Z,96.00
2023-05-24T18:45:44.307Z,95.40
2023-05-24T18:48:11.953Z,95.20
2023-05-24T18:50:39.547Z,95.20
2023-05-24T18:53:07.065Z,95.30
2023-05-24T18:55:34.590Z,95.50
2023-05-24T18:58:02.106Z,95.60
2023-05-24T19:00:29.643Z,95.40
2023-05-24T19:02:57.187Z,95.40
2023-05-24T19:05:24.697Z,95.40
2023-05-24T19:07:52.419Z,95.20
2023-05-24T19:10:20.052Z,95.20
2023-05-24T19:12:47.701Z,95.30
2023-05-24T19:15:15.309Z,95.70
2023-05-24T19:17:42.805Z,95.50
2023-05-24T19:20:10.997Z,95.40
2023-05-24T19:22:38.484Z,95.50
2023-05-24T19:25:06.362Z,95.60
2023-05-24T19:27:36.234Z,95.80
2023-05-24T19:30:06.055Z,96.10
2023-05-24T19:32:35.731Z,96.10
2023-05-24T19:35:03.379Z,96.10
2023-05-24T19:37:30.853Z,96.40
2023-05-24T19:39:58.431Z,96.70
2023-05-24T19:42:25.909Z,96.80
2023-05-24T19:44:53.402Z,97.10
2023-05-24T19:47:20.994Z,97.00
2023-05-24T19:49:48.587Z,96.80
2023-05-24T19:52:18.583Z,96.70
2023-05-24T19:54:46.153Z,96.70
2023-05-24T19:57:13.632Z,96.70
2023-05-24T19:59:41.259Z,96.70
2023-05-24T20:02:08.853Z,96.80
2023-05-24T20:10:30.252Z,97.00
2023-05-24T20:12:58.450Z,97.00
2023-05-24T20:15:29.007Z,96.80
2023-05-24T20:17:56.732Z,96.80
2023-05-24T20:20:24.357Z,96.70
2023-05-24T20:22:52.374Z,96.70
2023-05-24T20:25:20.996Z,96.70
2023-05-24T20:27:48.495Z,96.70
2023-05-24T20:30:17.779Z,96.60
2023-05-24T20:32:46.139Z,96.60
2023-05-24T20:35:13.659Z,96.50
2023-05-24T20:37:42.024Z,96.60
2023-05-24T20:40:09.700Z,96.70
2023-05-24T20:42:37.461Z,96.70
2023-05-24T20:45:05.380Z,96.80
2023-05-24T20:47:32.835Z,96.50
2023-05-24T20:50:00.551Z,96.50
2023-05-24T20:52:28.016Z,96.50
2023-05-24T20:54:55.622Z,96.30
2023-05-24T20:57:23.175Z,96.10
2023-05-24T20:59:50.829Z,95.90
2023-05-24T21:02:18.399Z,95.90
2023-05-24T21:04:46.217Z,95.60
2023-05-24T21:07:13.653Z,95.80
2023-05-24T21:09:41.176Z,95.00
2023-05-24T21:12:08.749Z,95.00
2023-05-24T21:14:36.221Z,95.40
2023-05-24T21:17:03.887Z,95.40
2023-05-24T21:19:31.623Z,95.60
2023-05-24T21:21:59.168Z,95.90
2023-05-24T21:24:26.605Z,96.00
2023-05-24T21:26:54.114Z,96.20
2023-05-24T21:29:21.575Z,96.70
2023-05-24T21:31:49.057Z,97.00
2023-05-24T21:34:16.494Z,97.10
2023-05-24T21:36:43.957Z,97.40
2023-05-24T21:39:11.403Z,97.50
2023-05-24T21:41:38.942Z,97.50
2023-05-24T21:44:08.214Z,97.80
2023-05-24T21:46:36.439Z,98.00
2023-05-24T21:49:04.141Z,98.30
2023-05-24T21:51:31.677Z,98.80
2023-05-24T21:53:59.203Z,99.00
2023-05-24T21:56:27.116Z,99.30
2023-05-24T21:58:54.814Z,99.60
2023-05-24T22:01:22.464Z,99.70
2023-05-24T22:03:50.048Z,99.40
2023-05-24T22:06:17.646Z,99.10
2023-05-24T22:08:45.079Z,99.10
2023-05-24T22:11:13.035Z,99.00
2023-05-24T22:13:40.506Z,99.00
2023-05-24T22:16:09.206Z,98.90
2023-05-24T22:18:36.806Z,99.20
2023-05-24T22:21:04.496Z,99.10
2023-05-24T22:23:33.401Z,99.10
2023-05-24T22:26:00.987Z,99.20
2023-05-24T22:28:28.990Z,99.30
2023-05-24T22:30:57.412Z,99.40
2023-05-24T22:33:24.899Z,99.20
2023-05-24T22:35:52.397Z,99.20
2023-05-24T22:38:19.889Z,98.90
2023-05-24T22:40:47.342Z,99.00
2023-05-24T22:43:14.829Z,99.00
2023-05-24T22:45:42.659Z,98.70
2023-05-24T22:48:10.508Z,98.40
2023-05-24T22:50:38.368Z,98.40
2023-05-24T22:53:05.907Z,98.20
2023-05-24T22:55:33.349Z,98.20
2023-05-24T22:58:01.901Z,97.60
2023-05-24T23:00:29.431Z,96.90
2023-05-24T23:02:56.990Z,97.00
2023-05-24T23:05:24.503Z,96.40
2023-05-24T23:07:52.659Z,96.20
2023-05-24T23:10:20.182Z,96.10
2023-05-24T23:12:47.660Z,95.80
2023-05-24T23:15:16.841Z,95.90
2023-05-24T23:17:44.657Z,95.70
2023-05-24T23:20:14.479Z,95.70
2023-05-24T23:22:42.014Z,95.70
2023-05-24T23:25:10.108Z,95.80
2023-05-24T23:27:37.682Z,96.30
2023-05-24T23:30:05.956Z,96.00
2023-05-24T23:32:33.716Z,96.20
2023-05-24T23:35:01.209Z,96.30
2023-05-24T23:37:28.714Z,96.60
2023-05-24T23:39:56.685Z,96.70
2023-05-24T23:42:24.099Z,96.80
2023-05-24T23:44:51.545Z,96.80
2023-05-24T23:47:19.062Z,96.80
2023-05-24T23:49:46.557Z,96.60
2023-05-24T23:52:15.273Z,96.80
2023-05-24T23:54:42.709Z,96.70
2023-05-24T23:57:10.182Z,96.60
2023-05-24T23:59:37.628Z,96.50
